DISAG EDDR-EDFB
Flight info
| Callsign | DISAG |
|---|---|
| Flight time | 0h 40m |
| Altitude | 13000 |
| Route | IXWIB1M IXWIB DCT TAU |
| Aircraft | B58T/L-SDFGRY/C |
Departure
| Time | 2026-05-07 09:19 |
|---|---|
| Airport | Saarbrücken Airport (EDDR) |
Arrival
| Time | 2026-05-07 10:00 |
|---|---|
| Airport | Reichelsheim Airfield (EDFB) |
| Time | Latitude | Longitude | Altitude | Speed | Heading |
|---|---|---|---|---|---|
| 2026-05-07 09:18 | 49.21492 | 7.12258 | 1059 ft | 0 kts | 267° |
| 2026-05-07 09:19 | 49.21477 | 7.11719 | 1068 ft | 97 kts | 266° |
| 2026-05-07 09:19 | 49.21412 | 7.10429 | 1283 ft | 142 kts | 264° |
| 2026-05-07 09:19 | 49.21360 | 7.08882 | 2000 ft | 144 kts | 269° |
| 2026-05-07 09:19 | 49.21334 | 7.07343 | 2749 ft | 146 kts | 269° |
| 2026-05-07 09:20 | 49.21291 | 7.05768 | 3429 ft | 149 kts | 269° |
| 2026-05-07 09:20 | 49.21246 | 7.04187 | 4082 ft | 151 kts | 269° |
| 2026-05-07 09:20 | 49.21198 | 7.02565 | 4698 ft | 153 kts | 269° |
| 2026-05-07 09:20 | 49.21150 | 7.00922 | 5258 ft | 155 kts | 269° |
| 2026-05-07 09:21 | 49.21118 | 6.99273 | 5787 ft | 155 kts | 276° |
| 2026-05-07 09:21 | 49.21580 | 6.97835 | 6290 ft | 155 kts | 316° |
| 2026-05-07 09:21 | 49.22529 | 6.97042 | 6745 ft | 158 kts | 338° |
| 2026-05-07 09:21 | 49.23560 | 6.96421 | 7183 ft | 159 kts | 337° |
| 2026-05-07 09:22 | 49.24591 | 6.95791 | 7627 ft | 161 kts | 337° |
| 2026-05-07 09:22 | 49.25666 | 6.95276 | 8044 ft | 164 kts | 352° |
| 2026-05-07 09:22 | 49.26806 | 6.95452 | 8466 ft | 168 kts | 15° |
| 2026-05-07 09:22 | 49.27864 | 6.96258 | 8860 ft | 172 kts | 27° |
| 2026-05-07 09:23 | 49.28909 | 6.97160 | 9221 ft | 174 kts | 32° |
| 2026-05-07 09:23 | 49.29717 | 6.98549 | 9552 ft | 178 kts | 59° |
| 2026-05-07 09:23 | 49.30092 | 7.00341 | 9860 ft | 182 kts | 84° |
| 2026-05-07 09:23 | 49.30099 | 7.02289 | 10124 ft | 184 kts | 90° |
| 2026-05-07 09:24 | 49.30103 | 7.04246 | 10405 ft | 184 kts | 90° |
| 2026-05-07 09:24 | 49.30103 | 7.06208 | 10667 ft | 184 kts | 90° |
| 2026-05-07 09:24 | 49.30101 | 7.08172 | 10926 ft | 185 kts | 90° |
| 2026-05-07 09:24 | 49.30316 | 7.10083 | 11155 ft | 183 kts | 59° |
| 2026-05-07 09:25 | 49.31255 | 7.11302 | 11389 ft | 178 kts | 20° |
| 2026-05-07 09:25 | 49.32374 | 7.12105 | 11600 ft | 179 kts | 29° |
| 2026-05-07 09:25 | 49.33409 | 7.13191 | 11818 ft | 180 kts | 34° |
| 2026-05-07 09:25 | 49.34428 | 7.14321 | 12022 ft | 181 kts | 34° |
| 2026-05-07 09:26 | 49.35449 | 7.15447 | 12227 ft | 181 kts | 33° |
| 2026-05-07 09:26 | 49.36473 | 7.16572 | 12421 ft | 181 kts | 33° |
| 2026-05-07 09:26 | 49.37497 | 7.17699 | 12598 ft | 181 kts | 33° |
| 2026-05-07 09:26 | 49.38521 | 7.18825 | 12775 ft | 181 kts | 33° |
| 2026-05-07 09:27 | 49.39549 | 7.19957 | 12943 ft | 182 kts | 33° |
| 2026-05-07 09:27 | 49.40569 | 7.21082 | 13015 ft | 186 kts | 34° |
| 2026-05-07 09:27 | 49.42678 | 7.23410 | 13012 ft | 186 kts | 34° |
| 2026-05-07 09:28 | 49.43727 | 7.24567 | 13009 ft | 186 kts | 34° |
| 2026-05-07 09:28 | 49.44778 | 7.25727 | 13011 ft | 186 kts | 34° |
| 2026-05-07 09:28 | 49.45830 | 7.26890 | 13009 ft | 186 kts | 34° |
| 2026-05-07 09:28 | 49.46881 | 7.28050 | 13007 ft | 186 kts | 34° |
| 2026-05-07 09:29 | 49.47929 | 7.29210 | 13007 ft | 185 kts | 34° |
| 2026-05-07 09:29 | 49.48975 | 7.30366 | 13010 ft | 185 kts | 34° |
| 2026-05-07 09:29 | 49.50019 | 7.31522 | 13011 ft | 185 kts | 34° |
| 2026-05-07 09:29 | 49.51048 | 7.32663 | 13006 ft | 185 kts | 34° |
| 2026-05-07 09:30 | 49.52091 | 7.33818 | 13008 ft | 184 kts | 34° |
| 2026-05-07 09:30 | 49.53132 | 7.34972 | 13006 ft | 184 kts | 34° |
| 2026-05-07 09:30 | 49.54171 | 7.36124 | 13008 ft | 184 kts | 34° |
| 2026-05-07 09:30 | 49.55209 | 7.37279 | 13007 ft | 184 kts | 34° |
| 2026-05-07 09:31 | 49.56247 | 7.38431 | 13006 ft | 184 kts | 34° |
| 2026-05-07 09:31 | 49.57285 | 7.39584 | 13005 ft | 184 kts | 34° |
| 2026-05-07 09:31 | 49.58325 | 7.40741 | 13007 ft | 184 kts | 34° |
| 2026-05-07 09:31 | 49.59365 | 7.41898 | 13010 ft | 185 kts | 34° |
| 2026-05-07 09:32 | 49.60407 | 7.43057 | 13010 ft | 185 kts | 34° |
| 2026-05-07 09:32 | 49.61451 | 7.44220 | 13006 ft | 185 kts | 34° |
| 2026-05-07 09:32 | 49.62495 | 7.45384 | 13009 ft | 184 kts | 34° |
| 2026-05-07 09:32 | 49.63181 | 7.46148 | 13007 ft | 184 kts | 34° |
| 2026-05-07 09:33 | 49.64222 | 7.47310 | 13010 ft | 184 kts | 34° |
| 2026-05-07 09:33 | 49.65613 | 7.48863 | 13011 ft | 185 kts | 34° |
| 2026-05-07 09:33 | 49.66305 | 7.49634 | 13013 ft | 185 kts | 34° |
| 2026-05-07 09:33 | 49.67351 | 7.50804 | 13011 ft | 186 kts | 34° |
| 2026-05-07 09:34 | 49.68400 | 7.51974 | 13012 ft | 186 kts | 34° |
| 2026-05-07 09:34 | 49.69448 | 7.53148 | 13014 ft | 186 kts | 34° |
| 2026-05-07 09:34 | 49.70493 | 7.54316 | 13009 ft | 185 kts | 34° |
| 2026-05-07 09:34 | 49.71535 | 7.55483 | 13014 ft | 185 kts | 33° |
| 2026-05-07 09:35 | 49.72579 | 7.56647 | 13004 ft | 185 kts | 34° |
| 2026-05-07 09:35 | 49.73609 | 7.57805 | 13004 ft | 185 kts | 34° |
| 2026-05-07 09:35 | 49.74649 | 7.58972 | 13006 ft | 184 kts | 34° |
| 2026-05-07 09:35 | 49.75686 | 7.60134 | 13004 ft | 184 kts | 34° |
| 2026-05-07 09:36 | 49.76722 | 7.61300 | 13006 ft | 184 kts | 34° |
| 2026-05-07 09:36 | 49.77671 | 7.62365 | 13008 ft | 184 kts | 34° |
| 2026-05-07 09:36 | 49.78708 | 7.63529 | 13007 ft | 184 kts | 33° |
| 2026-05-07 09:36 | 49.79744 | 7.64696 | 13010 ft | 184 kts | 33° |
| 2026-05-07 09:37 | 49.80783 | 7.65865 | 13007 ft | 185 kts | 33° |
| 2026-05-07 09:37 | 49.81824 | 7.67036 | 13012 ft | 185 kts | 33° |
| 2026-05-07 09:37 | 49.82863 | 7.68205 | 13011 ft | 184 kts | 33° |
| 2026-05-07 09:37 | 49.83899 | 7.69373 | 13009 ft | 184 kts | 33° |
| 2026-05-07 09:38 | 49.84934 | 7.70540 | 13005 ft | 184 kts | 33° |
| 2026-05-07 09:38 | 49.85969 | 7.71708 | 13010 ft | 184 kts | 33° |
| 2026-05-07 09:38 | 49.87006 | 7.72877 | 13007 ft | 184 kts | 33° |
| 2026-05-07 09:38 | 49.88041 | 7.74048 | 13007 ft | 184 kts | 33° |
| 2026-05-07 09:39 | 49.89075 | 7.75214 | 13007 ft | 183 kts | 33° |
| 2026-05-07 09:39 | 49.90106 | 7.76380 | 13002 ft | 183 kts | 33° |
| 2026-05-07 09:39 | 49.91134 | 7.77543 | 13006 ft | 183 kts | 33° |
| 2026-05-07 09:39 | 49.92164 | 7.78709 | 13005 ft | 183 kts | 33° |
| 2026-05-07 09:40 | 49.93194 | 7.79874 | 13006 ft | 183 kts | 33° |
| 2026-05-07 09:40 | 49.94221 | 7.81037 | 13010 ft | 183 kts | 33° |
| 2026-05-07 09:40 | 49.95248 | 7.82202 | 13007 ft | 183 kts | 33° |
| 2026-05-07 09:40 | 49.96266 | 7.83357 | 13010 ft | 183 kts | 33° |
| 2026-05-07 09:41 | 49.97294 | 7.84523 | 13010 ft | 183 kts | 33° |
| 2026-05-07 09:41 | 49.98326 | 7.85696 | 13012 ft | 183 kts | 33° |
| 2026-05-07 09:41 | 49.99353 | 7.86861 | 13013 ft | 183 kts | 33° |
| 2026-05-07 09:41 | 50.00383 | 7.88032 | 13015 ft | 183 kts | 33° |
| 2026-05-07 09:42 | 50.01409 | 7.89197 | 13014 ft | 183 kts | 33° |
| 2026-05-07 09:42 | 50.02349 | 7.90269 | 13016 ft | 183 kts | 33° |
| 2026-05-07 09:42 | 50.03376 | 7.91437 | 13018 ft | 183 kts | 33° |
| 2026-05-07 09:42 | 50.04401 | 7.92604 | 13018 ft | 183 kts | 33° |
| 2026-05-07 09:43 | 50.05428 | 7.93774 | 13018 ft | 183 kts | 33° |
| 2026-05-07 09:43 | 50.06452 | 7.94943 | 13020 ft | 183 kts | 33° |
| 2026-05-07 09:43 | 50.07481 | 7.96117 | 13019 ft | 183 kts | 33° |
| 2026-05-07 09:43 | 50.08507 | 7.97288 | 13020 ft | 183 kts | 33° |
| 2026-05-07 09:44 | 50.09534 | 7.98461 | 13021 ft | 183 kts | 33° |
| 2026-05-07 09:44 | 50.10562 | 7.99635 | 13021 ft | 183 kts | 33° |
| 2026-05-07 09:44 | 50.11588 | 8.00808 | 13022 ft | 183 kts | 33° |
| 2026-05-07 09:44 | 50.12617 | 8.01985 | 13022 ft | 183 kts | 33° |
| 2026-05-07 09:45 | 50.13637 | 8.03154 | 13024 ft | 183 kts | 33° |
| 2026-05-07 09:45 | 50.14605 | 8.04261 | 13023 ft | 183 kts | 33° |
| 2026-05-07 09:45 | 50.15631 | 8.05437 | 13022 ft | 183 kts | 33° |
| 2026-05-07 09:45 | 50.16656 | 8.06611 | 13024 ft | 182 kts | 33° |
| 2026-05-07 09:46 | 50.17676 | 8.07783 | 13022 ft | 182 kts | 33° |
| 2026-05-07 09:46 | 50.18698 | 8.08954 | 13023 ft | 182 kts | 33° |
| 2026-05-07 09:46 | 50.19719 | 8.10127 | 13025 ft | 183 kts | 33° |
| 2026-05-07 09:46 | 50.20742 | 8.11305 | 13027 ft | 182 kts | 33° |
| 2026-05-07 09:47 | 50.21755 | 8.12465 | 13027 ft | 183 kts | 33° |
| 2026-05-07 09:47 | 50.22785 | 8.13651 | 12923 ft | 187 kts | 34° |
| 2026-05-07 09:47 | 50.23821 | 8.14848 | 12660 ft | 184 kts | 34° |
| 2026-05-07 09:47 | 50.24734 | 8.16245 | 12359 ft | 186 kts | 53° |
| 2026-05-07 09:48 | 50.25270 | 8.18099 | 12061 ft | 190 kts | 73° |
| 2026-05-07 09:48 | 50.25513 | 8.20133 | 11758 ft | 191 kts | 77° |
| 2026-05-07 09:48 | 50.25765 | 8.22169 | 11453 ft | 191 kts | 76° |
| 2026-05-07 09:48 | 50.26016 | 8.24207 | 11161 ft | 191 kts | 76° |
| 2026-05-07 09:49 | 50.26264 | 8.26243 | 10867 ft | 191 kts | 77° |
| 2026-05-07 09:49 | 50.26511 | 8.28283 | 10573 ft | 191 kts | 77° |
| 2026-05-07 09:49 | 50.26759 | 8.30324 | 10291 ft | 191 kts | 77° |
| 2026-05-07 09:49 | 50.27006 | 8.32362 | 9993 ft | 191 kts | 77° |
| 2026-05-07 09:50 | 50.27252 | 8.34401 | 9632 ft | 191 kts | 77° |
| 2026-05-07 09:50 | 50.27496 | 8.36430 | 9233 ft | 188 kts | 77° |
| 2026-05-07 09:50 | 50.27737 | 8.38425 | 8839 ft | 186 kts | 76° |
| 2026-05-07 09:50 | 50.27976 | 8.40410 | 8450 ft | 185 kts | 77° |
| 2026-05-07 09:51 | 50.28216 | 8.42394 | 8063 ft | 185 kts | 77° |
| 2026-05-07 09:51 | 50.28453 | 8.44372 | 7682 ft | 185 kts | 77° |
| 2026-05-07 09:51 | 50.28690 | 8.46345 | 7306 ft | 184 kts | 77° |
| 2026-05-07 09:51 | 50.28920 | 8.48278 | 6923 ft | 182 kts | 77° |
| 2026-05-07 09:52 | 50.29147 | 8.50195 | 6475 ft | 174 kts | 77° |
| 2026-05-07 09:52 | 50.29365 | 8.52005 | 5993 ft | 171 kts | 76° |
| 2026-05-07 09:52 | 50.29584 | 8.53834 | 5467 ft | 170 kts | 77° |
| 2026-05-07 09:52 | 50.29799 | 8.55642 | 5031 ft | 166 kts | 77° |
| 2026-05-07 09:53 | 50.29998 | 8.57307 | 5011 ft | 154 kts | 76° |
| 2026-05-07 09:53 | 50.30199 | 8.58971 | 5004 ft | 153 kts | 76° |
| 2026-05-07 09:53 | 50.30392 | 8.60601 | 4996 ft | 152 kts | 76° |
| 2026-05-07 09:53 | 50.30587 | 8.62243 | 4888 ft | 156 kts | 76° |
| 2026-05-07 09:54 | 50.30783 | 8.63918 | 4688 ft | 157 kts | 76° |
| 2026-05-07 09:54 | 50.30971 | 8.65513 | 4403 ft | 163 kts | 76° |
| 2026-05-07 09:54 | 50.31180 | 8.67290 | 3995 ft | 168 kts | 77° |
| 2026-05-07 09:54 | 50.31395 | 8.69121 | 3601 ft | 173 kts | 77° |
| 2026-05-07 09:55 | 50.31609 | 8.70963 | 3197 ft | 171 kts | 79° |
| 2026-05-07 09:55 | 50.31573 | 8.72822 | 2783 ft | 172 kts | 99° |
| 2026-05-07 09:55 | 50.31196 | 8.74582 | 2495 ft | 163 kts | 109° |
| 2026-05-07 09:55 | 50.30813 | 8.76122 | 2465 ft | 141 kts | 108° |
| 2026-05-07 09:56 | 50.30460 | 8.77525 | 2205 ft | 136 kts | 109° |
| 2026-05-07 09:56 | 50.30127 | 8.78878 | 1952 ft | 131 kts | 108° |
| 2026-05-07 09:56 | 50.29801 | 8.80157 | 1712 ft | 124 kts | 109° |
| 2026-05-07 09:56 | 50.29496 | 8.81400 | 1502 ft | 120 kts | 108° |
| 2026-05-07 09:57 | 50.29210 | 8.82621 | 1511 ft | 122 kts | 108° |
| 2026-05-07 09:57 | 50.29002 | 8.83873 | 1503 ft | 117 kts | 92° |
| 2026-05-07 09:57 | 50.28928 | 8.85131 | 1497 ft | 116 kts | 94° |
| 2026-05-07 09:57 | 50.28859 | 8.86404 | 1503 ft | 120 kts | 81° |
| 2026-05-07 09:58 | 50.29316 | 8.87331 | 1491 ft | 107 kts | 14° |
| 2026-05-07 09:58 | 50.29986 | 8.87654 | 1352 ft | 89 kts | 13° |
| 2026-05-07 09:58 | 50.30553 | 8.87880 | 1119 ft | 82 kts | 5° |
| 2026-05-07 09:58 | 50.31120 | 8.87966 | 895 ft | 82 kts | 356° |
| 2026-05-07 09:59 | 50.31680 | 8.87954 | 785 ft | 78 kts | 354° |
| 2026-05-07 09:59 | 50.32220 | 8.87925 | 690 ft | 78 kts | 354° |
| 2026-05-07 09:59 | 50.32765 | 8.87920 | 532 ft | 76 kts | 354° |
| 2026-05-07 09:59 | 50.33275 | 8.87892 | 421 ft | 75 kts | 357° |
| 2026-05-07 10:00 | 50.33730 | 8.87875 | 395 ft | 51 kts | 358° |
| 2026-05-07 10:00 | 50.33968 | 8.87850 | 407 ft | 12 kts | 324° |
| 2026-05-07 10:00 | 50.33973 | 8.87837 | 405 ft | 0 kts | 272° |